Jackson Hole Airport

KJAC · Wyoming, Stany Zjednoczone

Historia METAR KJAC · Jackson Hole Airport

Poniżej widzisz METAR-y z ostatnich kilku dni. Wybierz rok, aby przeglądać starsze METAR-y, począwszy od roku 2007.

29 maja 2024

Czas Kod Pogoda Temp. Widoczność Sufit Wiatr METAR/SPECI
11:18
V
12 °C 10 mi 6.000 ft 180° 180° 3 kt METAR KJAC 291718Z 18003KT 10SM -RA BKN060 OVC070 12/05 A3011 RMK AO2 RAB14 P0000
10:56
V
12 °C 10 mi 7.000 ft 070° 070° 5 kt METAR KJAC 291656Z 07005KT 10SM OVC070 12/05 A3009 RMK AO2 RAB20E42 SLP157 P0000 T01170050
09:56
V
12 °C 10 mi 7.000 ft 210° 210° 7 kt METAR KJAC 291556Z 21007KT 10SM BKN070 OVC100 12/03 A3009 RMK AO2 RAE01 SLP150 P0000 T01170033
08:56
V
9 °C 10 mi 8.000 ft 200° 200° 6 kt METAR KJAC 291456Z 20006KT 10SM -RA FEW055 BKN080 BKN095 09/04 A3009 RMK AO2 SLP146 P0000 60000 T00940039 55001
07:56
V
11 °C 10 mi 8.500 ft 110° 110° 7 kt METAR KJAC 291356Z 11007KT 10SM -RA SCT060 BKN085 11/03 A3007 RMK AO2 RAB54 SLP135 P0000 T01060028
06:56
V
8 °C 10 mi - Var Var 3 kt METAR KJAC 291256Z VRB03KT 10SM SCT110 08/02 A3010 RMK AO2 SLP144 T00780022
05:56
V
7 °C 10 mi 11.000 ft 360° 360° 10 kt METAR KJAC 291156Z AUTO 36010KT 10SM FEW065 SCT090 BKN110 07/02 A3009 RMK AO2 SLP145 T00670017 10089 20050 50002
04:56
V
6 °C 10 mi 10.000 ft 060° 060° 3 kt METAR KJAC 291056Z AUTO 06003KT 10SM FEW080 BKN100 OVC110 06/02 A3010 RMK AO2 SLP152 T00610017
03:56
V
5 °C 10 mi 11.000 ft 320° 320° 5 kt METAR KJAC 290956Z AUTO 32005KT 10SM BKN110 05/01 A3009 RMK AO2 LTG DSNT NW SLP147 T00500006
02:56
V
7 °C 10 mi 11.000 ft 360° 360° 0 kt METAR KJAC 290856Z AUTO 00000KT 10SM BKN110 07/01 A3008 RMK AO2 SLP142 T00670006 56004
01:56
V
9 °C 10 mi - 340° 340° 3 kt METAR KJAC 290756Z AUTO 34003KT 10SM SCT110 09/02 A3008 RMK AO2 SLP140 T00890017
00:56
V
8 °C 10 mi - 100° 100° 3 kt METAR KJAC 290656Z AUTO 10003KT 10SM CLR 08/01 A3009 RMK AO2 SLP146 T00830011 402331011

28 maja 2024

Czas Kod Pogoda Temp. Widoczność Sufit Wiatr METAR/SPECI
23:56
V
9 °C 10 mi - 020° 020° 6 kt METAR KJAC 290556Z AUTO 02006KT 10SM CLR 09/01 A3010 RMK AO2 SLP153 60000 T00890011 10228 20089 50001
22:56
V
12 °C 10 mi - 100° 100° 6 kt METAR KJAC 290456Z AUTO 10006KT 10SM CLR 12/01 A3011 RMK AO2 SLP157 T01220011
21:56
V
15 °C 10 mi - 330° 330° 5 kt METAR KJAC 290356Z AUTO 33005KT 10SM FEW100 15/01 A3012 RMK AO2 RAE23 SLP159 P0000 T01500011
20:56
V
18 °C 10 mi 10.000 ft 230° 230° 6 kt METAR KJAC 290256Z 23006KT 10SM -RA FEW070 OVC100 18/M01 A3010 RMK AO2 PK WND 26033/0234 RAB55 SLP155 P0000 60000 T01781006 57002
19:56
V
19 °C 10 mi 9.000 ft 240° 240° 9 - 27 kt METAR KJAC 290156Z 24009G27KT 10SM FEW070 OVC090 19/M02 A3011 RMK AO2 PK WND 26027/0147 LTG DSNT NW SLP161 T01941022
18:56
V
22 °C 10 mi - 160° 160° 16 - 21 kt METAR KJAC 290056Z 16016G21KT 10SM SCT100 22/M01 A3009 RMK AO2 LTG DSNT SW SLP156 T02171011

27 maja 2024

Czas Kod Pogoda Temp. Widoczność Sufit Wiatr METAR/SPECI
17:56
V
22 °C 10 mi - 190° 190° 5 kt METAR KJAC 282356Z 19005KT 10SM SCT110 22/M02 A3010 RMK AO2 SLP168 T02171017 10233 20178 56021

28 maja 2024

Czas Kod Pogoda Temp. Widoczność Sufit Wiatr METAR/SPECI
16:56
V
22 °C 10 mi - 170° 170° 7 kt METAR KJAC 282256Z 17007KT 10SM FEW100 22/M02 A3012 RMK AO2 SLP170 T02171022
15:56
V
23 °C 10 mi - Var Var 4 kt METAR KJAC 282156Z VRB04KT 10SM CLR 23/M02 A3015 RMK AO2 SLP177 T02281022
14:56
V
22 °C 10 mi - Var Var 6 kt METAR KJAC 282056Z VRB06KT 10SM CLR 22/M01 A3018 RMK AO2 SLP186 T02221011 56021
13:56
V
21 °C 10 mi - 170° 170° 8 kt METAR KJAC 281956Z 17008KT 10SM CLR 21/M02 A3020 RMK AO2 SLP194 T02061017
12:56
V
20 °C 10 mi - 280° 280° 7 kt METAR KJAC 281856Z 28007KT 10SM CLR 20/00 A3022 RMK AO2 SLP203 T02000000
11:56
V
18 °C 10 mi - 190° 190° 6 kt METAR KJAC 281756Z 19006KT 10SM CLR 18/02 A3025 RMK AO2 SLP218 T01780022 10178 21006 58015
10:56
V
14 °C 10 mi - 190° 190° 5 kt METAR KJAC 281656Z 19005KT 10SM CLR 14/01 A3027 RMK AO2 SLP230 T01390011
09:56
V
11 °C 10 mi - 200° 200° 4 kt METAR KJAC 281556Z 20004KT 10SM CLR 11/M01 A3029 RMK AO2 SLP235 T01111006
08:56
V
8 °C 10 mi - 360° 360° 0 kt METAR KJAC 281456Z 00000KT 10SM CLR 08/M01 A3030 RMK AO2 SLP242 T00781006 50000
07:56
V
6 °C 10 mi - 360° 360° 0 kt METAR KJAC 281356Z 00000KT 10SM CLR 06/M02 A3031 RMK AO2 SLP239 T00561017
06:56
V
1 °C 10 mi - Var Var 3 kt METAR KJAC 281256Z VRB03KT 10SM CLR 01/M02 A3031 RMK AO2 SLP247 T00111022
05:56
V
-1 °C 10 mi - 320° 320° 4 kt METAR KJAC 281156Z AUTO 32004KT 10SM CLR M01/M03 A3030 RMK AO2 SLP248 T10061028 10050 21011 53003 FZRANO
04:56
V
1 °C 10 mi - 020° 020° 4 kt METAR KJAC 281056Z AUTO 02004KT 10SM CLR 01/M03 A3030 RMK AO2 SLP242 T00111028 FZRANO
03:56
V
2 °C 10 mi - 040° 040° 5 kt METAR KJAC 280956Z AUTO 04005KT 10SM CLR 02/M02 A3030 RMK AO2 SLP239 T00171022 FZRANO
02:56
V
2 °C 10 mi - 040° 040° 4 kt METAR KJAC 280856Z AUTO 04004KT 10SM CLR 02/M02 A3029 RMK AO2 SLP238 T00221022 51002 FZRANO
01:56
V
3 °C 10 mi - 020° 020° 4 kt METAR KJAC 280756Z AUTO 02004KT 10SM CLR 03/M02 A3029 RMK AO2 SLP238 T00331017
00:56
V
4 °C 10 mi - 020° 020° 5 kt METAR KJAC 280656Z AUTO 02005KT 10SM CLR 04/M02 A3029 RMK AO2 SLP237 T00441017 401891011

27 maja 2024

Czas Kod Pogoda Temp. Widoczność Sufit Wiatr METAR/SPECI
23:56
V
4 °C 10 mi - Var Var 3 kt METAR KJAC 280556Z AUTO VRB03KT 10SM CLR 04/M01 A3029 RMK AO2 SLP242 T00391011 10183 20039 51010
22:56
V
6 °C 10 mi - 360° 360° 3 kt METAR KJAC 280456Z AUTO 36003KT 10SM CLR 06/M01 A3029 RMK AO2 SLP238 T00561011
21:56
V
10 °C 10 mi - 360° 360° 0 kt METAR KJAC 280356Z AUTO 00000KT 10SM CLR 10/M01 A3028 RMK AO2 SLP229 T01001006
20:56
V
12 °C 10 mi - 020° 020° 6 kt METAR KJAC 280256Z 02006KT 10SM CLR 12/M01 A3025 RMK AO2 SLP223 T01171006 53006
19:56
V
17 °C 10 mi - 330° 330° 8 kt METAR KJAC 280156Z 33008KT 10SM CLR 17/M02 A3024 RMK AO2 SLP214 T01671022
19:21
V
17 °C 10 mi - 330° 330° 7 kt METAR KJAC 280121Z 33007KT 10SM CLR 17/M02 A3023 RMK AO2
18:56
V
18 °C 10 mi - 280° 280° 5 kt METAR KJAC 280056Z 28005KT 10SM CLR 18/M02 A3023 RMK AO2 SLP216 T01781022

26 maja 2024

Czas Kod Pogoda Temp. Widoczność Sufit Wiatr METAR/SPECI
17:56
V
18 °C 10 mi - 280° 280° 7 kt METAR KJAC 272356Z 28007KT 10SM CLR 18/M02 A3023 RMK AO2 SLP220 T01781022 10189 20139 56002

27 maja 2024

Czas Kod Pogoda Temp. Widoczność Sufit Wiatr METAR/SPECI
16:56
V
18 °C 10 mi - 280° 280° 13 kt METAR KJAC 272256Z 28013KT 10SM FEW080 18/M02 A3023 RMK AO2 SLP217 T01781022
15:56
V
18 °C 10 mi - 280° 280° 11 - 17 kt METAR KJAC 272156Z 28011G17KT 10SM FEW085 18/M02 A3022 RMK AO2 SLP213 T01831022
15:28
V
18 °C 10 mi - 330° 330° 10 - 16 kt METAR KJAC 272128Z 33010G16KT 10SM CLR 18/M02 A3023 RMK AO2
14:56
V
17 °C 10 mi - 310° 310° 10 - 17 kt METAR KJAC 272056Z 31010G17KT 10SM CLR 17/M03 A3023 RMK AO2 SLP214 T01721033 57009
14:13
V
17 °C 10 mi - 340° 340° 11 - 16 kt METAR KJAC 272013Z 34011G16KT 10SM CLR 17/M04 A3024 RMK AO2
13:56
V
17 °C 10 mi - 270° 270° 9 kt METAR KJAC 271956Z 27009KT 10SM CLR 17/M05 A3025 RMK AO2 SLP218 T01671050
12:56
V
16 °C 10 mi - Var Var 4 kt METAR KJAC 271856Z VRB04KT 10SM FEW070 16/M03 A3025 RMK AO2 SLP216 T01561028
11:56
V
14 °C 10 mi - 130° 130° 4 kt METAR KJAC 271756Z 13004KT 10SM CLR 14/M03 A3027 RMK AO2 SLP223 T01391033 10144 21006 58001
10:56
V
13 °C 10 mi - 210° 210° 4 kt METAR KJAC 271656Z 21004KT 10SM CLR 13/M01 A3027 RMK AO2 SLP223 T01281011
09:56
V
11 °C 10 mi - 220° 220° 6 kt METAR KJAC 271556Z 22006KT 10SM CLR 11/M02 A3027 RMK AO2 SLP227 T01061022
08:56
V
8 °C 10 mi - 180° 180° 4 kt METAR KJAC 271456Z 18004KT 10SM CLR 08/M02 A3027 RMK AO2 SLP232 T00781017 51012
07:56
V
6 °C 10 mi - 360° 360° 0 kt METAR KJAC 271356Z 00000KT 10SM CLR 06/M01 A3026 RMK AO2 SLP232 T00561011
06:56
V
2 °C 10 mi - 360° 360° 0 kt METAR KJAC 271256Z 00000KT 10SM CLR 02/M02 A3024 RMK AO2 SLP232 T00171022
05:56
V
-1 °C 10 mi - 060° 060° 4 kt METAR KJAC 271156Z AUTO 06004KT 10SM CLR M01/M03 A3022 RMK AO2 SLP231 T10061028 10089 21011 53014 FZRANO
04:56
V
1 °C 10 mi - 020° 020° 5 kt METAR KJAC 271056Z AUTO 02005KT 10SM CLR 01/M02 A3021 RMK AO2 SLP221 T00111022 FZRANO
03:56
V
2 °C 10 mi - 100° 100° 5 kt METAR KJAC 270956Z AUTO 10005KT 10SM CLR 02/M03 A3019 RMK AO2 SLP211 T00171028 FZRANO
02:56
V
3 °C 10 mi - 200° 200° 7 kt METAR KJAC 270856Z AUTO 20007KT 10SM CLR 03/M02 A3017 RMK AO2 SLP204 T00331022 53005
01:56
V
4 °C 10 mi 9.000 ft 240° 240° 8 kt METAR KJAC 270756Z AUTO 24008KT 10SM OVC090 04/M02 A3016 RMK AO2 SLP198 T00441022
00:56
V
7 °C 10 mi 8.500 ft 270° 270° 3 kt METAR KJAC 270656Z AUTO 27003KT 10SM OVC085 07/M02 A3016 RMK AO2 SLP189 T00721017 401440050

26 maja 2024

Czas Kod Pogoda Temp. Widoczność Sufit Wiatr METAR/SPECI
23:56
V
8 °C 10 mi 8.000 ft 120° 120° 5 kt METAR KJAC 270556Z AUTO 12005KT 10SM OVC080 08/M02 A3016 RMK AO2 SLP187 T00831017 10144 20083 51012
Zgłoś zmianę